Time;durP1;ratioP1;P1;durP2;ratioP2;P2;SDS_P1;SDS_P2;PMS_P1;PMS_P2;Temp;Humidity;BMP_temperature;BMP_pressure;BME280_temperature;BME280_humidity;BME280_pressure;Samples;Min_cycle;Max_cycle;Signal;HPM_P1;HPM_P2
2022/11/12 00:00:51;;;;;;;13.75;6.75;;;12.30;99.90;;;;;;5096975;28;20044;-66
2022/11/12 00:03:18;;;;;;;18.35;6.75;;;12.30;99.90;;;;;;5097173;28;20050;-66
2022/11/12 00:05:45;;;;;;;11.07;7.43;;;12.30;99.90;;;;;;5095434;28;20731;-67
2022/11/12 00:08:12;;;;;;;16.50;7.07;;;12.20;99.90;;;;;;5075868;28;20446;-66
2022/11/12 00:10:39;;;;;;;11.18;7.13;;;12.20;99.90;;;;;;5081448;28;20068;-66
2022/11/12 00:13:06;;;;;;;13.65;6.95;;;12.20;99.90;;;;;;5078957;28;20048;-66
2022/11/12 00:15:32;;;;;;;14.30;7.05;;;12.10;99.90;;;;;;5097039;28;20044;-66
2022/11/12 00:17:59;;;;;;;12.00;7.68;;;12.10;99.90;;;;;;5081991;28;20533;-66
2022/11/12 00:20:26;;;;;;;14.90;6.55;;;12.10;99.90;;;;;;5095880;28;20139;-66
2022/11/12 00:22:53;;;;;;;12.80;6.85;;;12.10;99.90;;;;;;5096726;28;20123;-66
2022/11/12 00:25:20;;;;;;;12.05;6.95;;;12.00;99.90;;;;;;5095917;28;20475;-66
2022/11/12 00:27:46;;;;;;;14.55;6.57;;;12.00;99.90;;;;;;5095977;28;20079;-66
2022/11/12 00:30:13;;;;;;;13.70;7.35;;;12.00;99.90;;;;;;5079337;28;20044;-66
2022/11/12 00:32:40;;;;;;;15.43;7.32;;;11.90;99.90;;;;;;5095012;28;20075;-65
2022/11/12 00:35:07;;;;;;;11.88;7.28;;;11.90;99.90;;;;;;5095273;28;20502;-65
2022/11/12 00:37:39;;;;;;;12.85;7.97;;;11.90;99.90;;;;;;5095090;28;20135;-65
2022/11/12 00:40:08;;;;;;;13.57;6.70;;;11.80;99.90;;;;;;5096389;28;20509;-65
2022/11/12 00:42:35;;;;;;;17.50;8.00;;;11.70;99.90;;;;;;5095019;28;20078;-65
2022/11/12 00:45:01;;;;;;;20.67;8.02;;;11.60;99.90;;;;;;5094841;28;20087;-66
2022/11/12 00:47:28;;;;;;;17.63;7.88;;;11.50;99.90;;;;;;5096124;28;20688;-66
2022/11/12 00:49:55;;;;;;;14.02;8.02;;;11.50;99.90;;;;;;5095703;28;20486;-66
2022/11/12 00:52:22;;;;;;;14.15;6.72;;;11.50;99.90;;;;;;5094966;28;20047;-65
2022/11/12 00:54:48;;;;;;;11.85;7.60;;;11.50;99.90;;;;;;5096803;28;20402;-65
2022/11/12 00:57:15;;;;;;;12.80;7.93;;;11.40;99.90;;;;;;5096123;28;21253;-64
2022/11/12 00:59:42;;;;;;;13.02;7.88;;;11.40;99.90;;;;;;5095554;28;20040;-65
2022/11/12 01:02:09;;;;;;;18.92;8.20;;;11.30;99.90;;;;;;5096398;28;20105;-64
2022/11/12 01:04:35;;;;;;;15.13;7.30;;;11.30;99.90;;;;;;5092576;28;20043;-65
2022/11/12 01:07:02;;;;;;;16.63;8.43;;;11.20;99.90;;;;;;5093359;28;20056;-65
2022/11/12 01:09:29;;;;;;;12.65;7.85;;;11.10;99.90;;;;;;5092928;28;20048;-64
2022/11/12 01:11:56;;;;;;;16.67;8.00;;;11.10;99.90;;;;;;5091915;28;20132;-64
2022/11/12 01:14:23;;;;;;;10.10;7.65;;;11.00;99.90;;;;;;5090148;28;20130;-65
2022/11/12 01:16:49;;;;;;;13.65;7.20;;;11.00;99.90;;;;;;5091810;28;20487;-65
2022/11/12 01:19:16;;;;;;;13.13;7.38;;;10.90;99.90;;;;;;5092816;28;20048;-65
2022/11/12 01:21:43;;;;;;;14.52;7.57;;;10.90;99.90;;;;;;5092283;28;20082;-65
2022/11/12 01:24:10;;;;;;;15.25;7.63;;;10.80;99.90;;;;;;5092359;28;20048;-65
2022/11/12 01:26:37;;;;;;;11.48;6.93;;;10.80;99.90;;;;;;5092173;28;20079;-65
2022/11/12 01:29:04;;;;;;;15.52;8.45;;;10.70;99.90;;;;;;5092232;28;20080;-65
2022/11/12 01:31:33;;;;;;;20.55;8.15;;;10.70;99.90;;;;;;5093212;28;20054;-65
2022/11/12 01:34:01;;;;;;;11.57;8.05;;;10.70;99.90;;;;;;5079185;28;20486;-65
2022/11/12 01:36:31;;;;;;;12.73;7.97;;;10.70;99.90;;;;;;5076370;28;20052;-66
2022/11/12 01:38:58;;;;;;;13.20;8.23;;;10.80;99.90;;;;;;5063730;28;20046;-65
2022/11/12 01:41:27;;;;;;;19.35;9.00;;;10.80;99.90;;;;;;5074962;28;20087;-65
2022/11/12 01:44:20;;;;;;;15.70;8.25;;;10.80;99.90;;;;;;5091334;28;20044;-65
2022/11/12 01:47:05;;;;;;;24.05;10.80;;;10.80;99.90;;;;;;5070671;28;20131;-65
2022/11/12 01:49:45;;;;;;;18.40;10.63;;;10.90;99.90;;;;;;5082116;28;20054;-65
2022/11/12 01:52:26;;;;;;;18.45;9.35;;;10.90;99.90;;;;;;5090965;28;20045;-65
2022/11/12 01:54:55;;;;;;;17.83;9.80;;;11.00;99.90;;;;;;5091283;28;20136;-65
2022/11/12 01:57:26;;;;;;;16.95;10.23;;;11.00;99.90;;;;;;5070607;28;20071;-65
2022/11/12 02:00:03;;;;;;;15.73;10.30;;;11.00;99.90;;;;;;5060844;28;20498;-65
2022/11/12 02:02:30;;;;;;;19.58;10.40;;;11.00;99.90;;;;;;5084053;28;20047;-65
2022/11/12 02:04:56;;;;;;;16.08;9.93;;;11.00;99.90;;;;;;5073010;28;20052;-65
2022/11/12 02:07:23;;;;;;;14.15;9.80;;;11.00;99.90;;;;;;5089492;28;20048;-65
2022/11/12 02:09:50;;;;;;;14.65;11.13;;;11.10;99.90;;;;;;5090835;28;20720;-65
2022/11/12 02:15:02;;;;;;;18.95;10.18;;;11.20;99.90;;;;;;5089388;28;20054;-65
2022/11/12 02:17:29;;;;;;;17.17;9.13;;;11.30;99.90;;;;;;5089487;28;20047;-65
2022/11/12 02:19:58;;;;;;;23.65;10.73;;;11.30;99.90;;;;;;5089696;28;20048;-65
2022/11/12 02:22:25;;;;;;;16.50;10.88;;;11.30;99.90;;;;;;5091082;28;20044;-65
2022/11/12 02:24:52;;;;;;;15.90;11.13;;;11.30;99.90;;;;;;5089498;28;20051;-64
2022/11/12 02:27:18;;;;;;;17.85;9.50;;;11.40;99.90;;;;;;5089457;28;20040;-65
2022/11/12 02:29:45;;;;;;;17.15;9.77;;;11.40;99.90;;;;;;5072799;28;20774;-65
2022/11/12 02:32:12;;;;;;;15.50;9.63;;;11.40;99.90;;;;;;5090136;28;20036;-65
2022/11/12 02:34:40;;;;;;;17.35;9.82;;;11.40;99.90;;;;;;5090805;28;20177;-65
2022/11/12 02:37:07;;;;;;;16.23;9.95;;;11.40;99.90;;;;;;5090027;28;20549;-66
2022/11/12 02:39:34;;;;;;;16.88;9.48;;;11.50;99.90;;;;;;5091195;28;20043;-65
2022/11/12 02:42:01;;;;;;;15.48;9.18;;;11.50;99.90;;;;;;5090185;28;20084;-64
2022/11/12 02:44:28;;;;;;;15.30;9.02;;;11.60;99.90;;;;;;5069339;28;20499;-64
2022/11/12 02:46:55;;;;;;;23.63;10.38;;;11.60;99.90;;;;;;5084375;28;20048;-64
2022/11/12 02:49:22;;;;;;;17.13;9.70;;;11.60;99.90;;;;;;5090669;28;20489;-64
2022/11/12 02:51:49;;;;;;;16.05;9.10;;;11.60;99.90;;;;;;5090711;28;20055;-67
2022/11/12 02:54:15;;;;;;;17.42;10.27;;;11.60;99.90;;;;;;5091561;28;20080;-65
2022/11/12 02:56:42;;;;;;;18.15;10.07;;;11.60;99.90;;;;;;5091682;28;20136;-64
2022/11/12 02:59:09;;;;;;;16.20;9.70;;;11.70;99.90;;;;;;5075964;28;20681;-64
2022/11/12 03:01:36;;;;;;;17.20;9.07;;;11.70;99.90;;;;;;5077900;28;20098;-65
2022/11/12 03:04:03;;;;;;;14.55;9.90;;;11.70;99.90;;;;;;5094840;28;20071;-65
2022/11/12 03:06:29;;;;;;;17.13;9.13;;;11.80;99.90;;;;;;5095949;28;20048;-66
2022/11/12 03:08:56;;;;;;;16.13;8.82;;;11.80;99.90;;;;;;5094723;28;20072;-65
2022/11/12 03:11:23;;;;;;;19.50;8.65;;;11.80;99.90;;;;;;5092458;28;20062;-65
2022/11/12 03:13:50;;;;;;;12.02;8.75;;;11.90;99.90;;;;;;5088201;28;20073;-66
2022/11/12 03:16:16;;;;;;;14.35;8.77;;;11.90;99.90;;;;;;5089846;28;20086;-65
2022/11/12 03:18:43;;;;;;;18.35;8.43;;;11.90;99.90;;;;;;5090640;28;20143;-65
2022/11/12 03:21:10;;;;;;;14.02;8.25;;;12.00;99.90;;;;;;5093367;28;20040;-65
2022/11/12 03:23:37;;;;;;;17.73;8.02;;;12.00;99.90;;;;;;5092990;28;20040;-66
2022/11/12 03:26:03;;;;;;;12.30;8.52;;;12.10;99.90;;;;;;5093321;28;20058;-67
2022/11/12 03:28:30;;;;;;;13.82;8.13;;;12.10;99.90;;;;;;5090559;28;20082;-65
2022/11/12 03:30:58;;;;;;;11.23;8.90;;;12.20;99.90;;;;;;5091305;28;20075;-66
2022/11/12 03:33:25;;;;;;;17.45;8.88;;;12.20;99.90;;;;;;5091195;28;20074;-64
2022/11/12 03:35:52;;;;;;;14.90;10.07;;;12.20;99.90;;;;;;5091208;28;20044;-65
2022/11/12 03:38:18;;;;;;;20.52;10.30;;;12.30;99.90;;;;;;5091026;28;20136;-65
2022/11/12 03:40:47;;;;;;;17.52;9.73;;;12.30;99.90;;;;;;5090673;28;20075;-64
2022/11/12 03:43:14;;;;;;;16.70;10.68;;;12.30;99.90;;;;;;5089806;28;20503;-65
2022/11/12 03:45:40;;;;;;;18.30;10.77;;;12.40;99.90;;;;;;5089164;28;20135;-63
2022/11/12 03:48:07;;;;;;;13.43;10.05;;;12.40;99.90;;;;;;5090221;28;20534;-64
2022/11/12 03:50:34;;;;;;;18.63;10.57;;;12.50;99.90;;;;;;5090895;28;20048;-64
2022/11/12 03:53:01;;;;;;;12.32;9.50;;;12.50;99.90;;;;;;5088440;28;20495;-64
2022/11/12 03:55:28;;;;;;;15.52;10.50;;;12.60;99.90;;;;;;5088767;28;20073;-65
2022/11/12 03:57:55;;;;;;;20.25;10.63;;;12.60;99.90;;;;;;5089567;28;20048;-65
2022/11/12 04:00:23;;;;;;;17.30;10.98;;;12.60;99.90;;;;;;5088181;28;20055;-66
2022/11/12 04:02:50;;;;;;;15.77;10.13;;;12.60;99.90;;;;;;5089133;28;20131;-64
2022/11/12 04:10:50;;;;;;;14.88;10.07;;;12.70;99.90;;;;;;5068722;28;20048;-64
2022/11/12 04:13:26;;;;;;;15.18;10.40;;;12.70;99.90;;;;;;5070544;28;20044;-64
2022/11/12 04:21:51;;;;;;;16.42;9.77;;;12.70;99.90;;;;;;5079235;28;20074;-64
2022/11/12 04:27:13;;;;;;;17.92;9.50;;;12.70;99.90;;;;;;5089444;28;20051;-64
2022/11/12 04:32:26;;;;;;;17.23;9.38;;;12.70;99.90;;;;;;5089342;28;20526;-65
2022/11/12 04:34:52;;;;;;;18.83;10.10;;;12.70;99.90;;;;;;5088687;28;20687;-65
2022/11/12 04:37:20;;;;;;;16.30;10.38;;;12.60;99.90;;;;;;5088856;28;20059;-66
2022/11/12 04:39:50;;;;;;;18.88;10.00;;;12.60;99.90;;;;;;5088940;28;20086;-65
2022/11/12 04:45:09;;;;;;;17.95;8.65;;;12.50;99.90;;;;;;5077173;28;20062;-64
2022/11/12 04:47:38;;;;;;;19.20;9.57;;;12.40;99.90;;;;;;5092211;28;20123;-65
2022/11/12 04:50:13;;;;;;;24.25;9.98;;;12.40;99.90;;;;;;5093535;28;20044;-65
2022/11/12 04:52:40;;;;;;;12.25;8.73;;;12.40;99.90;;;;;;5076405;28;20090;-65
2022/11/12 04:55:07;;;;;;;13.52;10.23;;;12.30;99.90;;;;;;5092471;28;20050;-65
2022/11/12 04:57:34;;;;;;;11.85;9.60;;;12.20;99.90;;;;;;5091696;28;20086;-65
2022/11/12 05:00:02;;;;;;;14.88;9.38;;;12.20;99.90;;;;;;5091077;28;20410;-65
2022/11/12 05:02:29;;;;;;;13.40;9.05;;;12.20;99.90;;;;;;5091413;28;20135;-64
2022/11/12 05:04:55;;;;;;;19.48;9.10;;;12.10;99.90;;;;;;5091320;28;20495;-65
2022/11/12 05:07:22;;;;;;;13.88;10.60;;;12.00;99.90;;;;;;5093602;28;20058;-65
2022/11/12 05:09:49;;;;;;;19.30;11.00;;;11.90;99.90;;;;;;5091004;28;20044;-65
2022/11/12 05:12:16;;;;;;;18.02;10.15;;;11.90;99.90;;;;;;5091566;28;20046;-65
2022/11/12 05:14:43;;;;;;;17.25;10.73;;;11.80;99.90;;;;;;5089635;28;20098;-65
2022/11/12 05:17:09;;;;;;;17.20;11.10;;;11.70;99.90;;;;;;5090628;28;20066;-64
2022/11/12 05:19:36;;;;;;;16.38;9.85;;;11.70;99.90;;;;;;5091037;28;20127;-65
2022/11/12 05:22:06;;;;;;;14.23;10.68;;;11.70;99.90;;;;;;5072997;28;20043;-65
2022/11/12 05:24:38;;;;;;;18.50;9.88;;;11.70;99.90;;;;;;5092844;28;20746;-65
2022/11/12 05:27:16;;;;;;;16.70;10.43;;;11.60;99.90;;;;;;5095412;28;20036;-64
2022/11/12 05:29:42;;;;;;;21.92;9.57;;;11.60;99.90;;;;;;5072818;28;20472;-65
2022/11/12 05:32:13;;;;;;;20.83;11.18;;;11.50;99.90;;;;;;5082453;28;20062;-65
2022/11/12 05:34:39;;;;;;;16.27;9.98;;;11.50;99.90;;;;;;5090884;28;20052;-66
2022/11/12 05:37:07;;;;;;;20.02;9.75;;;11.50;99.90;;;;;;5073579;28;20490;-65
2022/11/12 05:39:33;;;;;;;13.20;9.18;;;11.50;99.90;;;;;;5092041;28;20056;-65
2022/11/12 05:42:00;;;;;;;13.73;10.70;;;11.50;99.90;;;;;;5091562;28;20085;-65
2022/11/12 05:44:42;;;;;;;15.38;8.68;;;11.50;99.90;;;;;;5076129;28;20437;-65
2022/11/12 05:47:10;;;;;;;17.10;11.13;;;11.50;99.90;;;;;;5091960;28;20498;-65
2022/11/12 05:49:37;;;;;;;16.02;9.35;;;11.40;99.90;;;;;;5090421;28;20434;-66
2022/11/12 05:52:04;;;;;;;12.25;9.10;;;11.50;99.90;;;;;;5090948;28;20052;-65
2022/11/12 05:54:30;;;;;;;12.98;8.95;;;11.40;99.90;;;;;;5091641;28;20160;-65
2022/11/12 05:56:57;;;;;;;13.90;8.90;;;11.40;99.90;;;;;;5091319;28;20052;-66
2022/11/12 05:59:24;;;;;;;13.43;8.82;;;11.50;99.90;;;;;;5090822;28;20078;-65
2022/11/12 06:01:51;;;;;;;14.80;7.75;;;11.50;99.90;;;;;;5090282;28;20548;-65
2022/11/12 06:04:18;;;;;;;12.30;8.85;;;11.50;99.90;;;;;;5090985;28;20046;-65
2022/11/12 06:06:44;;;;;;;12.82;9.02;;;11.60;99.90;;;;;;5091460;28;20040;-65
2022/11/12 06:09:11;;;;;;;13.55;9.45;;;11.70;99.90;;;;;;5090929;28;20055;-64
2022/11/12 06:11:38;;;;;;;13.40;7.90;;;11.80;99.90;;;;;;5091577;28;20132;-65
2022/11/12 06:14:05;;;;;;;10.90;8.80;;;11.80;99.90;;;;;;5091181;28;20044;-64
2022/11/12 06:16:32;;;;;;;14.55;8.82;;;11.90;99.90;;;;;;5091007;28;20132;-64
2022/11/12 06:18:58;;;;;;;16.45;8.23;;;12.00;99.90;;;;;;5090884;28;20044;-64
2022/11/12 06:21:26;;;;;;;15.45;9.80;;;12.00;99.90;;;;;;5090749;28;20127;-64
2022/11/12 06:23:56;;;;;;;20.17;9.40;;;12.00;99.90;;;;;;5090849;28;20044;-65
2022/11/12 06:26:24;;;;;;;14.73;9.07;;;12.10;99.90;;;;;;5089654;28;20487;-65
2022/11/12 06:28:51;;;;;;;11.52;8.50;;;12.10;99.90;;;;;;5089494;28;20130;-64
2022/11/12 06:31:18;;;;;;;14.07;9.65;;;12.10;99.90;;;;;;5091102;28;20048;-64
2022/11/12 06:33:45;;;;;;;19.20;10.38;;;12.20;99.90;;;;;;5090630;28;20044;-64
2022/11/12 06:36:12;;;;;;;15.05;9.75;;;12.20;99.90;;;;;;5090532;28;20131;-65
2022/11/12 06:38:40;;;;;;;16.77;10.20;;;12.30;99.90;;;;;;5072561;28;20131;-64
2022/11/12 06:41:07;;;;;;;14.68;8.85;;;12.30;99.90;;;;;;5090861;28;20054;-65
2022/11/12 06:43:34;;;;;;;15.27;9.55;;;12.30;99.90;;;;;;5090527;28;20060;-64
2022/11/12 06:46:02;;;;;;;15.05;9.48;;;12.30;99.90;;;;;;5089421;28;20098;-64
2022/11/12 06:48:29;;;;;;;14.73;9.60;;;12.40;99.90;;;;;;5088771;28;20044;-64
2022/11/12 06:50:57;;;;;;;12.10;8.57;;;12.40;99.90;;;;;;5072205;28;20056;-64
2022/11/12 06:53:24;;;;;;;12.07;8.95;;;12.40;99.90;;;;;;5089463;28;20052;-64
2022/11/12 06:55:51;;;;;;;13.85;9.45;;;12.40;99.90;;;;;;5090018;28;20058;-64
2022/11/12 06:58:18;;;;;;;16.27;10.18;;;12.40;99.90;;;;;;5089386;28;20075;-65
2022/11/12 07:00:46;;;;;;;15.75;8.88;;;12.50;99.90;;;;;;5088457;28;20048;-64
2022/11/12 07:03:13;;;;;;;14.18;10.50;;;12.60;99.90;;;;;;5069390;28;20130;-64
2022/11/12 07:05:41;;;;;;;14.85;10.43;;;12.50;99.90;;;;;;5085158;28;20086;-65
2022/11/12 07:08:08;;;;;;;15.05;10.98;;;12.50;99.90;;;;;;5090454;28;20040;-64
2022/11/12 07:10:35;;;;;;;20.13;9.50;;;12.50;99.90;;;;;;5090172;28;20054;-64
2022/11/12 07:13:01;;;;;;;13.75;10.75;;;12.50;99.90;;;;;;5090470;28;20048;-65
2022/11/12 07:15:28;;;;;;;14.73;9.63;;;12.60;99.90;;;;;;5089912;28;20058;-65
2022/11/12 07:17:55;;;;;;;16.50;9.07;;;12.60;99.90;;;;;;5090778;28;20048;-65
2022/11/12 07:20:22;;;;;;;14.52;10.52;;;12.60;99.90;;;;;;5081664;28;20040;-65
2022/11/12 07:22:48;;;;;;;15.70;10.52;;;12.60;99.90;;;;;;5090023;28;20046;-65
2022/11/12 07:25:15;;;;;;;22.15;10.18;;;12.60;99.90;;;;;;5088422;28;20054;-65
2022/11/12 07:27:42;;;;;;;14.07;10.90;;;12.70;99.90;;;;;;5078491;28;20044;-66
2022/11/12 07:30:10;;;;;;;17.92;10.75;;;12.70;99.90;;;;;;5089343;28;20123;-65
2022/11/12 07:32:36;;;;;;;18.10;10.45;;;12.70;99.90;;;;;;5089830;28;20052;-65
2022/11/12 07:35:12;;;;;;;17.95;10.93;;;12.70;99.90;;;;;;5088185;28;20086;-64
2022/11/12 07:37:39;;;;;;;22.30;10.60;;;12.70;99.90;;;;;;5089802;28;20070;-67
2022/11/12 07:40:06;;;;;;;13.82;10.13;;;12.70;99.90;;;;;;5089168;28;20148;-64
2022/11/12 07:42:34;;;;;;;22.08;11.02;;;12.70;99.90;;;;;;5070550;28;20127;-65
2022/11/12 07:45:00;;;;;;;18.35;11.75;;;12.80;99.90;;;;;;5045724;28;20131;-65
2022/11/12 07:47:27;;;;;;;13.82;10.15;;;12.80;99.90;;;;;;5080127;28;20471;-65
2022/11/12 07:49:54;;;;;;;14.23;10.52;;;12.80;99.90;;;;;;5054031;28;20041;-66
2022/11/12 07:52:21;;;;;;;17.63;10.73;;;12.80;99.90;;;;;;5084040;28;20364;-66
2022/11/12 07:54:48;;;;;;;17.98;12.10;;;12.80;99.90;;;;;;5089996;28;20131;-65
2022/11/12 07:57:14;;;;;;;18.52;11.15;;;12.90;99.90;;;;;;5089324;28;20086;-65
2022/11/12 07:59:41;;;;;;;18.02;11.77;;;12.90;99.90;;;;;;5089051;28;20091;-64
2022/11/12 08:02:12;;;;;;;20.67;10.77;;;12.90;99.90;;;;;;5087939;28;20044;-65
2022/11/12 08:04:39;;;;;;;13.00;9.70;;;12.90;99.90;;;;;;5089633;28;20044;-64
2022/11/12 08:07:05;;;;;;;18.60;11.05;;;12.90;99.90;;;;;;5087973;28;20131;-66
2022/11/12 08:09:32;;;;;;;16.05;11.30;;;13.00;99.90;;;;;;5088235;28;20052;-65
2022/11/12 08:11:59;;;;;;;15.05;10.63;;;13.00;99.90;;;;;;5089041;28;20040;-65
2022/11/12 08:14:26;;;;;;;19.38;11.40;;;13.00;99.90;;;;;;4728108;28;10000599;-64
2022/11/12 08:16:53;;;;;;;16.83;11.23;;;13.20;99.90;;;;;;5078983;28;20056;-63
2022/11/12 08:19:19;;;;;;;18.40;11.50;;;13.10;99.90;;;;;;5092462;28;20046;-65
2022/11/12 08:21:46;;;;;;;19.30;11.95;;;13.10;99.90;;;;;;5091763;28;20142;-65
2022/11/12 08:24:13;;;;;;;16.98;11.52;;;13.10;99.90;;;;;;5092132;28;20044;-66
2022/11/12 08:26:40;;;;;;;15.20;11.30;;;13.00;99.90;;;;;;5092115;28;20054;-66
2022/11/12 08:29:06;;;;;;;17.65;11.55;;;13.10;99.90;;;;;;5092863;28;20050;-65
2022/11/12 08:31:34;;;;;;;24.05;11.82;;;13.20;99.90;;;;;;5091786;28;20479;-65
2022/11/12 08:34:10;;;;;;;20.20;10.45;;;13.20;99.90;;;;;;5091465;28;20047;-66
2022/11/12 08:36:39;;;;;;;16.58;12.35;;;13.20;99.90;;;;;;5091630;28;20075;-66
2022/11/12 08:39:06;;;;;;;16.70;9.48;;;13.20;99.90;;;;;;5091042;28;20079;-65
2022/11/12 08:41:34;;;;;;;20.42;10.93;;;13.20;99.90;;;;;;5075008;28;20232;-65
2022/11/12 08:44:01;;;;;;;18.25;11.68;;;13.30;99.90;;;;;;5089553;28;20051;-63
2022/11/12 08:46:34;;;;;;;19.10;11.88;;;13.30;99.90;;;;;;5068286;28;20079;-65
2022/11/12 08:49:01;;;;;;;13.93;9.90;;;13.30;99.90;;;;;;5082021;28;20418;-66
2022/11/12 08:51:27;;;;;;;23.30;11.52;;;13.40;99.90;;;;;;5054117;28;20047;-65
2022/11/12 08:53:55;;;;;;;20.45;10.73;;;13.40;99.90;;;;;;5089238;28;20465;-64
2022/11/12 08:56:21;;;;;;;16.35;10.75;;;13.40;99.90;;;;;;5088841;28;20052;-65
2022/11/12 08:58:48;;;;;;;19.58;11.80;;;13.50;99.90;;;;;;5067760;28;20052;-64
2022/11/12 09:01:15;;;;;;;14.60;9.68;;;13.50;99.90;;;;;;5060590;28;20467;-65
2022/11/12 09:03:42;;;;;;;18.77;10.45;;;13.50;99.90;;;;;;5070672;28;20055;-65
2022/11/12 09:06:10;;;;;;;15.20;10.10;;;13.60;99.90;;;;;;5089105;28;20445;-65
2022/11/12 09:08:38;;;;;;;15.55;11.23;;;13.60;99.90;;;;;;5088486;28;20071;-64
2022/11/12 09:11:05;;;;;;;18.10;10.77;;;13.60;99.90;;;;;;5089435;28;20083;-66
2022/11/12 09:13:34;;;;;;;14.20;10.48;;;13.60;99.90;;;;;;5087995;28;20097;-65
2022/11/12 09:16:02;;;;;;;18.02;11.13;;;13.60;99.90;;;;;;5072909;28;20479;-66
2022/11/12 09:18:29;;;;;;;13.88;9.88;;;13.60;99.90;;;;;;5089182;28;20088;-64
2022/11/12 09:21:04;;;;;;;15.02;9.75;;;13.60;99.90;;;;;;5090754;28;20070;-65
2022/11/12 09:23:32;;;;;;;18.83;11.02;;;13.70;99.90;;;;;;5073721;28;20048;-64
2022/11/12 09:25:59;;;;;;;17.00;10.38;;;13.70;99.90;;;;;;5070708;28;20067;-65
2022/11/12 09:28:25;;;;;;;21.00;9.68;;;13.70;99.90;;;;;;5089074;28;20109;-65
2022/11/12 09:30:53;;;;;;;20.20;10.30;;;13.70;99.90;;;;;;5086680;28;20087;-65
2022/11/12 09:33:25;;;;;;;17.38;9.63;;;13.80;99.90;;;;;;5087477;28;20048;-64
2022/11/12 09:35:53;;;;;;;17.73;10.23;;;13.80;99.90;;;;;;5088205;28;20051;-63
2022/11/12 09:38:21;;;;;;;12.70;9.30;;;13.70;99.90;;;;;;5087223;28;20058;-63
2022/11/12 09:40:50;;;;;;;15.57;9.98;;;13.70;99.90;;;;;;5070279;28;20418;-65
2022/11/12 09:43:30;;;;;;;15.43;10.90;;;13.70;99.90;;;;;;5087870;28;20083;-66
2022/11/12 09:46:05;;;;;;;17.33;11.38;;;13.70;99.90;;;;;;5070625;28;20048;-65
2022/11/12 09:48:55;;;;;;;17.15;11.23;;;13.70;99.90;;;;;;5066348;28;20059;-64
2022/11/12 09:51:27;;;;;;;16.38;10.15;;;13.80;99.90;;;;;;5066968;28;20412;-65
2022/11/12 09:53:55;;;;;;;17.63;10.43;;;13.80;99.90;;;;;;5050054;28;20157;-65
2022/11/12 09:56:23;;;;;;;18.00;10.32;;;13.90;99.90;;;;;;5064592;28;20133;-65
2022/11/12 09:58:50;;;;;;;16.33;9.88;;;14.00;99.90;;;;;;5066759;28;20477;-65
2022/11/12 10:01:54;;;;;;;15.40;9.45;;;14.00;99.90;;;;;;5079681;28;20040;-64
2022/11/12 10:04:49;;;;;;;16.38;10.05;;;14.10;99.90;;;;;;4985644;28;20097;-64
2022/11/12 10:07:23;;;;;;;;;;;14.10;99.90;;;;;;5087195;28;20048;-66
2022/11/12 10:10:03;;;;;;;17.90;10.90;;;14.20;99.90;;;;;;5087900;28;19924;-66
2022/11/12 10:12:53;;;;;;;18.13;9.98;;;14.20;99.90;;;;;;5086279;28;20287;-65
2022/11/12 10:18:39;;;;;;;14.30;10.35;;;14.40;99.90;;;;;;5076798;28;20048;-64
2022/11/12 10:21:23;;;;;;;15.45;9.63;;;14.50;99.90;;;;;;5089783;28;20123;-64
2022/11/12 10:23:51;;;;;;;18.40;9.55;;;14.50;99.90;;;;;;5081005;28;20047;-63
2022/11/12 10:26:20;;;;;;;13.63;9.00;;;14.50;99.90;;;;;;5089592;28;20066;-65
2022/11/12 10:28:50;;;;;;;15.05;9.02;;;14.50;99.90;;;;;;5089684;28;20127;-65
2022/11/12 10:31:18;;;;;;;14.75;9.75;;;14.60;99.90;;;;;;5089161;28;20284;-65
2022/11/12 10:33:45;;;;;;;14.57;9.93;;;14.60;99.90;;;;;;5090420;28;20470;-66
2022/11/12 10:36:32;;;;;;;13.48;9.18;;;14.60;99.90;;;;;;5090317;28;20056;-63
2022/11/12 10:38:59;;;;;;;13.40;8.02;;;14.70;99.90;;;;;;5090564;28;20129;-64
2022/11/12 10:41:29;;;;;;;24.50;9.07;;;14.60;99.90;;;;;;5089219;28;20080;-64
2022/11/12 10:44:01;;;;;;;11.27;8.55;;;14.70;99.90;;;;;;5089191;28;20130;-63
2022/11/12 10:46:28;;;;;;;15.70;10.10;;;14.70;99.90;;;;;;5089227;28;20269;-64
2022/11/12 10:49:00;;;;;;;14.93;9.10;;;14.70;99.90;;;;;;5089487;28;20140;-65
2022/11/12 10:51:30;;;;;;;18.98;9.30;;;14.80;99.90;;;;;;5089100;28;20062;-65
2022/11/12 10:53:57;;;;;;;13.15;8.70;;;14.80;99.90;;;;;;5090315;28;20455;-65
2022/11/12 10:56:29;;;;;;;14.57;8.18;;;14.90;99.90;;;;;;5089169;28;20139;-64
2022/11/12 10:59:23;;;;;;;17.70;10.07;;;14.90;99.90;;;;;;5088824;28;20134;-64
2022/11/12 11:01:58;;;;;;;11.85;8.18;;;14.90;99.90;;;;;;5085217;28;20131;-65
2022/11/12 11:04:35;;;;;;;13.13;8.85;;;14.90;99.90;;;;;;5088291;28;20048;-64
2022/11/12 11:07:23;;;;;;;14.38;9.82;;;15.00;99.90;;;;;;5072334;28;20083;-64
2022/11/12 11:09:59;;;;;;;14.18;8.13;;;15.00;99.90;;;;;;5086806;28;20520;-65
2022/11/12 11:12:27;;;;;;;11.23;8.00;;;15.00;99.90;;;;;;5088637;28;20060;-65
2022/11/12 11:15:07;;;;;;;11.57;8.07;;;15.10;99.90;;;;;;5088862;28;20044;-65
2022/11/12 11:17:34;;;;;;;11.77;7.50;;;15.20;99.90;;;;;;5089686;28;20147;-65
2022/11/12 11:20:05;;;;;;;14.73;7.63;;;15.20;99.90;;;;;;5088567;28;20108;-65
2022/11/12 11:22:41;;;;;;;12.98;7.38;;;15.20;99.90;;;;;;5089981;28;20071;-64
2022/11/12 11:25:22;;;;;;;10.15;7.05;;;15.20;99.90;;;;;;5072149;28;20052;-65
2022/11/12 11:27:51;;;;;;;12.95;7.68;;;15.10;99.90;;;;;;5056069;28;20131;-65
2022/11/12 11:30:19;;;;;;;14.00;8.05;;;15.10;99.90;;;;;;5090213;28;20075;-65
2022/11/12 11:32:59;;;;;;;10.23;7.03;;;15.20;99.90;;;;;;5090046;28;20098;-66
2022/11/12 11:35:45;;;;;;;12.00;8.02;;;15.20;99.90;;;;;;5088869;28;20048;-65
2022/11/12 11:38:20;;;;;;;11.77;8.13;;;15.20;99.90;;;;;;5089205;28;20109;-64
2022/11/12 11:40:55;;;;;;;11.18;6.82;;;15.10;99.90;;;;;;5085753;28;20059;-64
2022/11/12 11:43:48;;;;;;;11.80;7.18;;;15.10;99.90;;;;;;5089282;28;20144;-65
2022/11/12 11:46:49;;;;;;;17.58;8.50;;;15.10;99.90;;;;;;5087612;28;20407;-65
2022/11/12 11:49:46;;;;;;;12.57;7.55;;;15.20;99.90;;;;;;5087950;28;20470;-65
2022/11/12 11:52:30;;;;;;;11.50;8.55;;;15.20;99.90;;;;;;5090547;28;20134;-65
2022/11/12 11:55:04;;;;;;;14.05;8.60;;;15.30;99.90;;;;;;5074029;28;20047;-65
2022/11/12 11:57:43;;;;;;;;;;;15.30;99.90;;;;;;5089745;28;20055;-65
2022/11/12 12:00:18;;;;;;;13.65;8.65;;;15.20;99.90;;;;;;5092720;28;19990;-65
2022/11/12 12:02:50;;;;;;;15.07;9.35;;;15.20;99.90;;;;;;5071929;28;20131;-65
2022/11/12 12:05:35;;;;;;;13.43;8.20;;;15.30;99.90;;;;;;5084600;28;20128;-65
2022/11/12 12:08:08;;;;;;;13.65;8.10;;;15.20;99.90;;;;;;5093194;28;20562;-65
2022/11/12 12:10:40;;;;;;;14.43;7.47;;;15.20;99.90;;;;;;5093802;28;20079;-65
2022/11/12 12:13:56;;;;;;;15.52;8.82;;;15.10;99.90;;;;;;5091925;28;20056;-65
2022/11/12 12:16:51;;;;;;;11.38;8.07;;;15.10;99.90;;;;;;5076343;28;20099;-64
2022/11/12 12:19:21;;;;;;;9.68;7.97;;;15.10;99.90;;;;;;5085405;28;20049;-63
2022/11/12 12:21:49;;;;;;;15.93;9.02;;;15.10;99.90;;;;;;5087467;28;20127;-64
2022/11/12 12:24:29;;;;;;;14.88;7.85;;;15.10;99.90;;;;;;5090203;28;20048;-65
2022/11/12 12:27:19;;;;;;;10.55;7.63;;;15.00;99.90;;;;;;5056985;28;20052;-64
2022/11/12 12:29:59;;;;;;;10.18;7.07;;;15.10;99.90;;;;;;5090205;28;20052;-65
2022/11/12 12:32:36;;;;;;;9.77;7.03;;;15.10;99.90;;;;;;5086406;28;20062;-65
2022/11/12 12:35:12;;;;;;;11.35;7.40;;;15.10;99.90;;;;;;5069870;28;20557;-65
2022/11/12 12:38:12;;;;;;;11.18;7.18;;;15.10;99.90;;;;;;5084085;28;20124;-66
2022/11/12 12:41:02;;;;;;;13.85;6.97;;;15.10;99.90;;;;;;5057699;28;20052;-65
2022/11/12 12:43:36;;;;;;;9.98;5.75;;;15.10;99.90;;;;;;5044425;28;20499;-65
2022/11/12 12:46:03;;;;;;;8.02;6.45;;;15.10;99.90;;;;;;5068430;28;20040;-65
2022/11/12 12:48:32;;;;;;;12.85;6.15;;;15.10;99.90;;;;;;5068116;28;20083;-65
2022/11/12 12:50:58;;;;;;;12.50;6.70;;;15.10;99.90;;;;;;5084469;28;20086;-64
2022/11/12 12:53:28;;;;;;;12.50;5.88;;;15.10;99.90;;;;;;5068133;28;20502;-65
2022/11/12 12:56:00;;;;;;;8.00;5.32;;;15.10;99.90;;;;;;5087014;28;20050;-66
2022/11/12 12:58:39;;;;;;;10.82;6.40;;;15.10;99.90;;;;;;5052836;28;20387;-64
2022/11/12 13:01:21;;;;;;;7.95;5.90;;;15.20;99.90;;;;;;5087855;28;20044;-65
2022/11/12 13:04:07;;;;;;;13.07;5.75;;;15.20;99.90;;;;;;5088438;28;20056;-64
2022/11/12 13:06:38;;;;;;;9.07;5.70;;;15.20;99.90;;;;;;5074003;28;20056;-65
2022/11/12 13:09:11;;;;;;;6.93;5.32;;;15.20;99.90;;;;;;5062153;28;20063;-65
2022/11/12 13:14:37;;;;;;;9.00;5.30;;;15.30;99.90;;;;;;5081976;28;20040;-65
2022/11/12 13:17:09;;;;;;;13.23;5.35;;;15.30;99.90;;;;;;5091070;28;20150;-65